Time;durP1;ratioP1;P1;durP2;ratioP2;P2;SDS_P1;SDS_P2;PMS_P1;PMS_P2;Temp;Humidity;BMP_temperature;BMP_pressure;BME280_temperature;BME280_humidity;BME280_pressure;Samples;Min_cycle;Max_cycle;Signal;HPM_P1;HPM_P2
2021/01/25 00:01:37;;;;;;;22.47;11.87;;;;;;;-0.61;88.39;99285.60;118711;1157;65147;-85
2021/01/25 00:04:03;;;;;;;21.75;11.68;;;;;;;-0.64;88.49;99289.31;118694;1157;65303;-85
2021/01/25 00:06:32;;;;;;;31.03;16.27;;;;;;;-0.65;87.09;99286.84;118824;1157;65216;-85
2021/01/25 00:08:58;;;;;;;34.57;15.37;;;;;;;-0.68;87.68;99292.30;118990;1157;65135;-84
2021/01/25 00:11:25;;;;;;;34.80;16.25;;;;;;;-0.68;88.53;99281.88;118786;1157;65178;-85
2021/01/25 00:13:51;;;;;;;31.93;16.73;;;;;;;-0.68;87.90;99281.88;118719;1156;65510;-84
2021/01/25 00:16:17;;;;;;;27.13;13.67;;;;;;;-0.67;87.66;99283.55;119099;1157;65216;-86
2021/01/25 00:18:44;;;;;;;19.15;10.55;;;;;;;-0.69;87.72;99288.06;119173;1157;65239;-86
2021/01/25 00:21:11;;;;;;;21.73;12.03;;;;;;;-0.72;88.23;99291.77;119180;1157;65113;-85
2021/01/25 00:23:37;;;;;;;33.40;17.57;;;;;;;-0.72;87.80;99289.17;118777;1157;65258;-85
2021/01/25 00:26:03;;;;;;;32.30;15.77;;;;;;;-0.71;88.87;99287.38;118551;1157;65103;-85
2021/01/25 00:28:29;;;;;;;27.27;15.50;;;;;;;-0.73;88.33;99292.72;118796;1157;65209;-85
2021/01/25 00:30:56;;;;;;;33.65;17.50;;;;;;;-0.71;88.84;99292.59;118745;1155;65175;-86
2021/01/25 00:33:22;;;;;;;32.27;18.10;;;;;;;-0.69;89.62;99295.88;119004;1157;66213;-85
2021/01/25 00:35:48;;;;;;;35.28;17.12;;;;;;;-0.70;90.18;99289.86;119029;1157;65150;-84
2021/01/25 00:38:15;;;;;;;33.73;17.03;;;;;;;-0.69;90.33;99291.48;118998;1157;65053;-85
2021/01/25 00:40:42;;;;;;;30.87;14.60;;;;;;;-0.66;89.91;99298.20;118664;1157;65069;-86
2021/01/25 00:43:08;;;;;;;47.83;20.13;;;;;;;-0.63;89.96;99292.73;118698;1157;65141;-86
2021/01/25 00:45:34;;;;;;;44.67;21.93;;;;;;;-0.59;89.16;99304.52;118680;1157;65207;-86
2021/01/25 00:48:00;;;;;;;44.88;20.05;;;;;;;-0.56;89.79;99300.81;118857;1157;65124;-86
2021/01/25 00:50:27;;;;;;;36.30;19.97;;;;;;;-0.52;89.56;99305.60;119157;1156;65196;-84
2021/01/25 00:52:53;;;;;;;37.67;19.10;;;;;;;-0.50;89.80;99302.87;118833;1157;65159;-85
2021/01/25 00:55:19;;;;;;;40.00;18.23;;;;;;;-0.50;89.50;99303.69;119056;1157;65133;-82
2021/01/25 00:57:46;;;;;;;45.20;21.17;;;;;;;-0.46;90.06;99307.66;119093;1157;65095;-83
2021/01/25 01:00:13;;;;;;;53.53;20.77;;;;;;;-0.44;90.03;99300.53;118682;1157;65108;-87
2021/01/25 01:02:40;;;;;;;43.70;20.23;;;;;;;-0.42;88.95;99303.81;119142;1157;65289;-86
2021/01/25 01:05:09;;;;;;;42.90;20.55;;;;;;;-0.39;88.99;99304.50;119044;1157;65209;-86
2021/01/25 01:07:35;;;;;;;39.07;18.60;;;;;;;-0.36;89.73;99306.81;118889;1157;66187;-87
2021/01/25 01:10:03;;;;;;;32.50;16.55;;;;;;;-0.35;88.72;99309.30;118956;1157;66346;-84
2021/01/25 01:12:32;;;;;;;33.67;18.27;;;;;;;-0.36;89.43;99305.05;119144;1155;65143;-86
2021/01/25 01:14:58;;;;;;;37.60;17.63;;;;;;;-0.36;89.08;99301.60;118816;1157;65175;-88
2021/01/25 01:17:24;;;;;;;37.33;16.80;;;;;;;-0.36;89.41;99306.81;118794;1157;65117;-86
2021/01/25 01:19:52;;;;;;;39.63;18.63;;;;;;;-0.35;87.88;99305.88;118722;1157;65276;-86
2021/01/25 01:22:18;;;;;;;21.53;12.07;;;;;;;-0.37;88.45;99305.19;118695;1157;65136;-86
2021/01/25 01:24:44;;;;;;;25.27;12.90;;;;;;;-0.37;88.50;99305.19;118453;1157;65143;-85
2021/01/25 01:27:10;;;;;;;37.17;17.77;;;;;;;-0.36;88.94;99312.02;118513;1157;65169;-86
2021/01/25 01:29:36;;;;;;;36.60;16.73;;;;;;;-0.38;89.08;99304.38;118721;1157;65137;-86
2021/01/25 01:32:03;;;;;;;37.10;18.90;;;;;;;-0.37;88.82;99310.39;118766;1157;65231;-85
2021/01/25 01:34:30;;;;;;;16.73;7.87;;;;;;;-0.38;89.15;99309.58;118785;1157;65124;-84
2021/01/25 01:36:56;;;;;;;41.93;19.73;;;;;;;-0.37;89.00;99316.42;118920;1157;65204;-86
2021/01/25 01:39:22;;;;;;;38.17;17.87;;;;;;;-0.35;88.80;99311.89;118922;1157;65144;-86
2021/01/25 01:41:48;;;;;;;38.00;18.87;;;;;;;-0.34;87.88;99313.56;118985;1157;65251;-86
2021/01/25 01:44:14;;;;;;;38.03;18.07;;;;;;;-0.34;88.66;99316.16;118967;1157;65050;-84
2021/01/25 01:46:46;;;;;;;29.63;15.77;;;;;;;-0.37;87.99;99305.19;119064;1157;66448;-85
2021/01/25 01:49:14;;;;;;;32.55;16.90;;;;;;;-0.38;88.76;99311.34;118935;1157;65169;-85
2021/01/25 01:51:40;;;;;;;22.43;11.30;;;;;;;-0.41;88.36;99308.05;118923;1157;65233;-87
2021/01/25 01:54:07;;;;;;;32.93;16.03;;;;;;;-0.42;87.53;99314.23;118951;1157;65073;-86
2021/01/25 01:56:35;;;;;;;31.00;14.53;;;;;;;-0.44;87.79;99310.13;118776;1157;65147;-85
2021/01/25 01:59:02;;;;;;;32.33;15.90;;;;;;;-0.45;87.98;99309.32;118831;1157;65137;-85
2021/01/25 02:01:28;;;;;;;29.20;12.57;;;;;;;-0.45;86.78;99304.11;118928;1157;65297;-85
2021/01/25 02:03:57;;;;;;;23.77;12.93;;;;;;;-0.46;87.06;99302.45;119052;1157;65144;-84
2021/01/25 02:06:25;;;;;;;27.75;14.30;;;;;;;-0.48;87.16;99301.77;118920;1157;65204;-85
2021/01/25 02:08:53;;;;;;;26.15;12.65;;;;;;;-0.49;87.35;99300.13;118750;1157;65161;-85
2021/01/25 02:11:19;;;;;;;31.43;17.03;;;;;;;-0.49;86.69;99297.53;118854;1157;65213;-85
2021/01/25 02:13:48;;;;;;;36.53;16.60;;;;;;;-0.50;87.46;99302.87;118924;1157;65156;-86
2021/01/25 02:16:15;;;;;;;33.23;15.77;;;;;;;-0.51;87.61;99301.20;118834;1157;65468;-87
2021/01/25 02:18:41;;;;;;;29.67;12.67;;;;;;;-0.53;86.55;99300.52;119366;1156;65732;-86
2021/01/25 02:21:11;;;;;;;29.03;15.03;;;;;;;-0.58;86.85;99302.73;118893;1157;65140;-88
2021/01/25 02:24:08;;;;;;;28.65;14.65;;;;;;;-0.60;87.87;99302.86;119324;1157;65028;-85
2021/01/25 02:27:21;;;;;;;34.87;15.97;;;;;;;-0.63;86.70;99301.36;119026;1157;65799;-85
2021/01/25 02:29:47;;;;;;;30.93;15.33;;;;;;;-0.66;86.62;99308.61;118689;1157;65217;-84
2021/01/25 02:32:14;;;;;;;32.63;15.80;;;;;;;-0.68;87.45;99292.30;118771;1157;65218;-85
2021/01/25 02:34:41;;;;;;;27.80;13.30;;;;;;;-0.71;87.38;99288.20;118693;1157;65204;-86
2021/01/25 02:37:09;;;;;;;27.33;13.83;;;;;;;-0.84;86.42;99288.47;118828;1157;65239;-84
2021/01/25 02:39:36;;;;;;;33.35;14.70;;;;;;;-0.82;86.57;99298.75;118808;1157;65038;-86
2021/01/25 02:42:03;;;;;;;40.23;15.43;;;;;;;-0.85;86.56;99293.80;118810;1157;65185;-85
2021/01/25 02:44:31;;;;;;;32.50;16.43;;;;;;;-0.87;86.99;99298.32;119063;1157;65158;-86
2021/01/25 02:46:58;;;;;;;35.37;16.23;;;;;;;-0.89;87.11;99300.27;119280;1157;65117;-86
2021/01/25 02:49:25;;;;;;;25.15;12.80;;;;;;;-0.91;87.27;99295.19;119040;1157;65169;-85
2021/01/25 02:51:51;;;;;;;33.45;14.65;;;;;;;-0.93;87.70;99301.50;118883;1157;65151;-85
2021/01/25 02:54:18;;;;;;;33.20;15.17;;;;;;;-0.96;88.03;99310.38;118761;1157;65143;-86
2021/01/25 02:56:47;;;;;;;34.03;16.47;;;;;;;-0.95;87.45;99306.83;119108;1157;65162;-85
2021/01/25 02:59:15;;;;;;;36.17;18.17;;;;;;;-0.94;87.21;99310.25;118827;1157;65057;-85
2021/01/25 03:01:45;;;;;;;34.40;17.40;;;;;;;-0.94;88.23;99305.05;118924;1157;65108;-85
2021/01/25 03:04:13;;;;;;;30.47;14.50;;;;;;;-0.93;88.64;99307.52;119116;1157;65057;-86
2021/01/25 03:06:42;;;;;;;35.43;15.93;;;;;;;-0.94;88.41;99311.06;119074;1157;66703;-86
2021/01/25 03:09:08;;;;;;;28.90;14.63;;;;;;;-0.96;87.59;99304.35;119511;1157;65060;-87
2021/01/25 03:11:38;;;;;;;42.23;19.40;;;;;;;-0.97;87.89;99308.74;118616;1157;65124;-86
2021/01/25 03:14:11;;;;;;;36.75;16.80;;;;;;;-0.98;88.52;99309.69;119167;1157;65127;-88
2021/01/25 03:16:37;;;;;;;35.80;16.70;;;;;;;-0.98;87.57;99312.28;118904;1157;65444;-86
2021/01/25 03:19:04;;;;;;;27.35;14.40;;;;;;;-1.00;87.95;99316.80;119150;1157;66240;-86
2021/01/25 03:21:34;;;;;;;29.93;15.10;;;;;;;-1.02;87.93;99310.91;118838;1157;65070;-86
2021/01/25 03:24:04;;;;;;;27.00;13.53;;;;;;;-1.03;86.96;99322.30;119153;1157;65098;-86
2021/01/25 03:26:30;;;;;;;33.33;14.60;;;;;;;-1.04;88.28;99318.06;119475;1157;65020;-86
2021/01/25 03:28:56;;;;;;;28.73;14.97;;;;;;;-1.07;88.01;99323.52;119195;1157;65066;-83
2021/01/25 03:31:22;;;;;;;35.20;13.73;;;;;;;-1.10;87.23;99323.80;118608;1157;65510;-86
2021/01/25 03:33:49;;;;;;;26.60;14.70;;;;;;;-1.15;86.95;99321.56;118693;1157;65172;-85
2021/01/25 03:36:15;;;;;;;24.60;12.03;;;;;;;-1.17;87.14;99322.66;118741;1157;65144;-86
2021/01/25 03:38:41;;;;;;;31.60;15.07;;;;;;;-1.21;87.21;99323.89;118876;1157;65204;-83
2021/01/25 03:41:07;;;;;;;34.87;15.80;;;;;;;-1.23;87.67;99324.05;118974;1157;65140;-85
2021/01/25 03:43:33;;;;;;;30.77;15.50;;;;;;;-1.24;87.50;99328.40;118942;1157;65149;-85
2021/01/25 03:46:00;;;;;;;29.67;13.43;;;;;;;-1.21;88.34;99331.69;118900;1157;65159;-84
2021/01/25 03:48:26;;;;;;;24.70;12.80;;;;;;;-1.24;88.46;99333.60;119137;1157;65462;-85
2021/01/25 03:50:52;;;;;;;23.43;11.13;;;;;;;-1.25;87.87;99329.37;119121;1157;65143;-85
2021/01/25 03:53:19;;;;;;;29.17;14.20;;;;;;;-1.29;87.02;99342.78;118912;1157;65264;-85
2021/01/25 03:55:46;;;;;;;35.20;15.23;;;;;;;-1.35;87.00;99336.31;119085;1157;65258;-84
2021/01/25 03:58:12;;;;;;;27.60;14.30;;;;;;;-1.40;86.45;99337.66;119027;1157;65137;-86
2021/01/25 04:00:39;;;;;;;29.47;12.87;;;;;;;-1.44;86.93;99334.52;118843;1157;65238;-84
2021/01/25 04:03:05;;;;;;;28.13;12.53;;;;;;;-1.45;87.91;99340.66;118925;1157;65020;-85
2021/01/25 04:05:32;;;;;;;27.00;13.15;;;;;;;-1.47;88.18;99342.56;118939;1157;65206;-87
2021/01/25 04:07:58;;;;;;;31.40;15.45;;;;;;;-1.48;87.51;99333.13;118928;1157;65120;-86
2021/01/25 04:10:24;;;;;;;29.63;13.57;;;;;;;-1.51;87.59;99336.83;118627;1157;65124;-84
2021/01/25 04:12:51;;;;;;;28.90;13.53;;;;;;;-1.55;87.31;99334.59;118657;1157;65147;-86
2021/01/25 04:15:17;;;;;;;31.17;13.20;;;;;;;-1.60;87.53;99334.17;118883;1157;65127;-85
2021/01/25 04:17:43;;;;;;;26.07;13.37;;;;;;;-1.62;87.19;99341.27;118748;1157;65146;-85
2021/01/25 04:20:10;;;;;;;34.47;14.83;;;;;;;-1.62;87.58;99341.27;118714;1157;65143;-87
2021/01/25 04:22:37;;;;;;;30.23;15.47;;;;;;;-1.63;88.83;99342.25;118810;1157;65756;-87
2021/01/25 04:25:06;;;;;;;28.80;13.80;;;;;;;-1.68;87.96;99346.05;118992;1157;65143;-86
2021/01/25 04:27:32;;;;;;;26.93;12.90;;;;;;;-1.71;88.16;99342.88;118999;1157;65219;-86
2021/01/25 04:29:58;;;;;;;31.70;12.47;;;;;;;-1.74;88.57;99351.77;118769;1157;65235;-84
2021/01/25 04:32:25;;;;;;;33.23;15.60;;;;;;;-1.75;88.40;99355.30;118678;1157;65175;-87
2021/01/25 04:34:52;;;;;;;34.17;15.23;;;;;;;-1.78;88.15;99342.58;119270;1155;65120;-84
2021/01/25 04:37:19;;;;;;;28.57;13.90;;;;;;;-1.79;88.62;99348.72;118929;1157;65601;-85
2021/01/25 04:39:45;;;;;;;24.50;13.30;;;;;;;-1.82;88.87;99359.38;119306;1157;65083;-82
2021/01/25 04:42:12;;;;;;;22.40;11.70;;;;;;;-1.85;88.87;99352.67;118726;1157;65287;-86
2021/01/25 04:44:45;;;;;;;30.03;12.70;;;;;;;-1.84;88.00;99356.09;118732;1157;65173;-85
2021/01/25 04:47:12;;;;;;;27.40;13.50;;;;;;;-1.86;89.00;99355.39;118830;1156;65040;-87
2021/01/25 04:49:41;;;;;;;33.93;12.53;;;;;;;-1.88;88.15;99367.69;119058;1157;65113;-86
2021/01/25 04:52:10;;;;;;;27.35;12.80;;;;;;;-1.90;88.50;99367.81;118914;1157;65175;-87
2021/01/25 04:54:38;;;;;;;23.67;11.57;;;;;;;-1.93;87.75;99373.28;119660;1157;65165;-85
2021/01/25 04:57:06;;;;;;;28.30;13.77;;;;;;;-1.94;88.50;99368.20;120004;1157;65049;-86
2021/01/25 04:59:34;;;;;;;32.27;13.77;;;;;;;-1.97;88.58;99369.28;119055;1157;65150;-86
2021/01/25 05:02:01;;;;;;;36.50;12.90;;;;;;;-1.96;88.45;99375.30;119239;1157;65025;-85
2021/01/25 05:04:30;;;;;;;27.30;13.65;;;;;;;-1.98;88.88;99364.20;119154;1157;65101;-86
2021/01/25 05:06:56;;;;;;;29.90;13.50;;;;;;;-2.00;89.01;99373.91;118968;1157;65178;-86
2021/01/25 05:09:23;;;;;;;22.87;11.33;;;;;;;-2.00;88.92;99368.70;119429;1157;65050;-85
2021/01/25 05:11:57;;;;;;;29.05;12.30;;;;;;;-2.05;89.23;99364.71;118792;1157;65770;-86
2021/01/25 05:14:23;;;;;;;28.67;12.43;;;;;;;-2.06;89.31;99373.47;119471;1157;65188;-86
2021/01/25 05:16:50;;;;;;;27.70;12.83;;;;;;;-2.08;88.75;99370.17;119508;1157;65140;-88
2021/01/25 05:19:16;;;;;;;20.77;11.70;;;;;;;-2.09;89.30;99372.89;119596;1157;64343;-86
2021/01/25 05:21:46;;;;;;;28.80;11.55;;;;;;;-2.11;89.14;99370.41;119505;1157;65210;-87
2021/01/25 05:24:13;;;;;;;31.50;16.00;;;;;;;-2.10;89.30;99373.85;119305;1157;65168;-85
2021/01/25 05:27:01;;;;;;;30.20;13.67;;;;;;;-2.13;88.87;99367.11;118768;1157;65082;-85
2021/01/25 05:29:29;;;;;;;21.73;11.30;;;;;;;-2.16;88.15;99364.78;119217;1157;65054;-86
2021/01/25 05:31:56;;;;;;;20.43;11.10;;;;;;;-2.19;89.37;99365.05;118899;1157;65332;-83
2021/01/25 05:34:23;;;;;;;24.23;11.80;;;;;;;-2.18;88.41;99371.88;119230;1157;65075;-85
2021/01/25 05:36:50;;;;;;;31.30;14.83;;;;;;;-2.19;89.47;99372.84;118801;1157;65168;-85
2021/01/25 05:39:18;;;;;;;24.67;12.73;;;;;;;-2.20;88.54;99385.95;119265;1157;65152;-86
2021/01/25 05:41:58;;;;;;;31.83;12.53;;;;;;;-2.25;89.60;99391.52;119129;1157;65163;-87
2021/01/25 05:44:26;;;;;;;23.23;11.30;;;;;;;-2.29;88.83;99387.52;119797;1157;65277;-86
2021/01/25 05:47:12;;;;;;;27.77;12.80;;;;;;;-2.30;88.53;99388.45;119676;1157;65251;-84
2021/01/25 05:49:38;;;;;;;36.85;14.00;;;;;;;-2.31;88.97;99394.61;118990;1157;65113;-86
2021/01/25 05:52:05;;;;;;;26.40;12.45;;;;;;;-2.36;89.57;99394.14;118543;1157;65257;-85
2021/01/25 05:54:32;;;;;;;27.30;11.90;;;;;;;-2.39;89.00;99387.43;119282;1157;63891;-87
2021/01/25 05:56:59;;;;;;;32.05;14.50;;;;;;;-2.39;89.12;99392.63;119165;1157;65198;-86
2021/01/25 05:59:28;;;;;;;32.38;14.25;;;;;;;-2.39;89.95;99397.00;119164;1157;65126;-84
2021/01/25 06:02:01;;;;;;;24.03;10.17;;;;;;;-2.41;88.97;99396.30;119616;1157;65171;-86
2021/01/25 06:04:30;;;;;;;18.67;11.00;;;;;;;-2.44;88.78;99393.94;119651;1157;65127;-84
2021/01/25 06:07:08;;;;;;;27.37;13.23;;;;;;;-2.47;88.97;99398.42;119589;1157;65133;-85
2021/01/25 06:09:53;;;;;;;26.43;12.13;;;;;;;-2.47;89.29;99403.62;119223;1157;65145;-85
2021/01/25 06:12:33;;;;;;;;;;;;;;;-2.46;89.20;99407.06;119530;1157;65076;-86
2021/01/25 06:15:06;;;;;;;19.97;10.73;;;;;;;-2.48;89.73;99398.57;119392;1157;65050;-85
2021/01/25 06:17:34;;;;;;;29.80;12.55;;;;;;;-2.48;90.13;99408.95;118878;1156;65197;-86
2021/01/25 06:20:04;;;;;;;32.30;12.27;;;;;;;-2.49;89.58;99413.34;118538;1157;65258;-86
2021/01/25 06:22:33;;;;;;;33.70;12.60;;;;;;;-2.49;88.52;99405.55;118836;1157;65143;-84
2021/01/25 06:25:01;;;;;;;25.77;12.53;;;;;;;-2.51;89.80;99417.83;118605;1157;65086;-86
2021/01/25 06:27:30;;;;;;;28.53;11.93;;;;;;;-2.53;89.95;99411.92;118902;1157;65066;-86
2021/01/25 06:30:04;;;;;;;29.00;13.03;;;;;;;-2.53;90.07;99424.91;119490;1157;66408;-86
2021/01/25 06:32:35;;;;;;;30.57;12.90;;;;;;;-2.52;89.45;99428.33;118917;1157;65136;-86
2021/01/25 06:35:06;;;;;;;20.63;9.63;;;;;;;-2.53;89.05;99426.66;118871;1157;65079;-85
2021/01/25 06:37:37;;;;;;;22.60;9.80;;;;;;;-2.55;89.64;99429.40;118921;1157;65066;-87
2021/01/25 06:40:11;;;;;;;25.13;11.80;;;;;;;-2.53;89.91;99426.66;119414;1157;65097;-85
2021/01/25 06:42:39;;;;;;;36.10;13.35;;;;;;;-2.56;89.71;99432.92;119974;1157;65235;-86
2021/01/25 06:45:06;;;;;;;22.57;11.87;;;;;;;-2.57;89.95;99439.08;119092;1157;65156;-85
2021/01/25 06:47:36;;;;;;;26.53;11.13;;;;;;;-2.58;88.98;99445.20;118665;1157;65219;-84
2021/01/25 06:50:04;;;;;;;22.87;10.10;;;;;;;-2.57;89.60;99444.27;119112;1157;65576;-77
2021/01/25 06:52:38;;;;;;;23.15;10.20;;;;;;;-2.52;89.90;99443.91;118322;1157;66226;-76
2021/01/25 06:55:07;;;;;;;26.05;10.50;;;;;;;-2.49;90.03;99438.45;118103;1157;65325;-76
2021/01/25 06:57:36;;;;;;;27.50;11.45;;;;;;;-2.46;89.97;99449.43;118219;1155;65488;-76
2021/01/25 07:00:14;;;;;;;26.43;12.00;;;;;;;-2.43;90.12;99452.73;118015;1155;66247;-76
2021/01/25 07:02:57;;;;;;;27.27;11.73;;;;;;;-2.41;89.72;99453.44;118109;1155;65086;-75
2021/01/25 07:05:33;;;;;;;27.60;10.17;;;;;;;-2.43;89.01;99452.73;118099;1157;65182;-76
2021/01/25 07:08:18;;;;;;;26.97;10.78;;;;;;;-2.43;88.59;99450.95;118150;1157;65532;-74
2021/01/25 07:11:02;;;;;;;23.63;10.17;;;;;;;-2.43;89.38;99458.73;118117;1155;65153;-78
2021/01/25 07:13:36;;;;;;;20.60;9.90;;;;;;;-2.44;89.62;99462.30;118354;1157;65097;-78
2021/01/25 07:16:03;;;;;;;18.07;9.07;;;;;;;-2.43;88.80;99463.12;118219;1155;65082;-78
2021/01/25 07:18:31;;;;;;;21.23;11.47;;;;;;;-2.43;89.65;99468.31;118279;1157;66231;-80
2021/01/25 07:21:00;;;;;;;33.90;12.80;;;;;;;-2.40;88.62;99473.25;118549;1157;65236;-80
2021/01/25 07:23:28;;;;;;;27.03;11.33;;;;;;;-2.37;89.15;99480.81;118647;1157;65132;-80
2021/01/25 07:25:59;;;;;;;20.40;9.80;;;;;;;-2.36;88.66;99482.45;118569;1157;65280;-77
2021/01/25 07:28:30;;;;;;;29.67;11.07;;;;;;;-2.36;88.40;99480.70;118191;1157;65181;-77
2021/01/25 07:30:58;;;;;;;21.33;10.07;;;;;;;-2.39;88.39;99486.12;118222;1155;65057;-76
2021/01/25 07:33:26;;;;;;;19.00;9.37;;;;;;;-2.43;87.91;99491.68;118340;1155;65025;-76
2021/01/25 07:35:53;;;;;;;22.53;10.63;;;;;;;-2.43;88.40;99495.09;118335;1157;65143;-76
2021/01/25 07:38:23;;;;;;;23.47;11.33;;;;;;;-2.42;89.33;99495.91;118168;1155;65202;-77
2021/01/25 07:40:49;;;;;;;21.30;9.60;;;;;;;-2.41;88.59;99501.00;118176;1155;65079;-77
2021/01/25 07:43:18;;;;;;;22.10;11.57;;;;;;;-2.38;89.19;99502.52;118156;1155;66208;-77
2021/01/25 07:45:46;;;;;;;26.97;11.23;;;;;;;-2.34;88.46;99509.12;118333;1156;66220;-77
2021/01/25 07:48:14;;;;;;;20.70;9.75;;;;;;;-2.30;89.50;99506.16;118181;1157;65156;-77
2021/01/25 07:50:40;;;;;;;26.57;11.77;;;;;;;-2.29;88.89;99514.80;118237;1155;65133;-75
2021/01/25 07:53:07;;;;;;;21.13;9.87;;;;;;;-2.29;88.47;99518.21;118104;1157;65127;-77
2021/01/25 07:55:38;;;;;;;34.10;13.30;;;;;;;-2.29;88.55;99520.81;118099;1155;65086;-76
2021/01/25 07:58:11;;;;;;;26.27;12.93;;;;;;;-2.29;88.70;99527.78;118107;1155;65157;-76
2021/01/25 08:00:40;;;;;;;26.43;11.07;;;;;;;-2.26;88.41;99540.52;118036;1157;65241;-75
2021/01/25 08:03:15;;;;;;;25.53;11.77;;;;;;;-2.25;87.78;99534.39;118102;1157;65140;-75
2021/01/25 08:05:44;;;;;;;23.20;10.60;;;;;;;-2.25;88.58;99539.58;118239;1155;65433;-77
2021/01/25 08:08:12;;;;;;;21.50;10.50;;;;;;;-2.27;88.71;99537.09;118168;1157;65257;-76
2021/01/25 08:10:40;;;;;;;21.93;10.80;;;;;;;-2.26;87.54;99537.92;118062;1157;65180;-76
2021/01/25 08:13:19;;;;;;;23.10;11.30;;;;;;;-2.27;88.49;99536.28;118183;1155;65640;-75
2021/01/25 08:16:10;;;;;;;22.80;11.50;;;;;;;-2.26;88.20;99543.93;118222;1155;65123;-76
2021/01/25 08:18:39;;;;;;;26.70;10.90;;;;;;;-2.26;88.79;99538.73;118129;1157;65238;-76
2021/01/25 08:21:12;;;;;;;21.50;10.43;;;;;;;-2.26;89.05;99543.11;118105;1157;66091;-77
2021/01/25 08:23:43;;;;;;;25.33;11.53;;;;;;;-2.26;88.61;99543.93;118083;1156;65113;-75
2021/01/25 08:26:10;;;;;;;25.17;10.70;;;;;;;-2.22;87.80;99547.12;118105;1157;65239;-76
2021/01/25 08:28:42;;;;;;;33.03;11.63;;;;;;;-2.20;88.03;99545.23;118074;1157;66239;-76
2021/01/25 08:31:12;;;;;;;24.83;11.17;;;;;;;-2.18;88.85;99547.72;118138;1156;65231;-76
2021/01/25 08:33:41;;;;;;;21.43;11.23;;;;;;;-2.15;87.77;99553.47;118096;1157;65141;-77
2021/01/25 08:36:26;;;;;;;26.83;11.27;;;;;;;-2.09;87.82;99557.37;118220;1157;64994;-76
2021/01/25 08:38:53;;;;;;;20.77;9.73;;;;;;;-2.02;88.67;99555.10;118465;1157;66341;-76
2021/01/25 08:41:28;;;;;;;18.97;9.90;;;;;;;-1.98;87.50;99559.11;118131;1157;65117;-75
2021/01/25 08:44:01;;;;;;;22.30;10.90;;;;;;;-1.91;87.52;99565.48;118236;1157;65148;-77
2021/01/25 08:46:38;;;;;;;20.27;10.10;;;;;;;-1.86;87.14;99565.93;118293;1157;65627;-76
2021/01/25 08:49:08;;;;;;;19.70;10.53;;;;;;;-1.84;87.71;99569.23;118273;1157;65203;-76
2021/01/25 08:51:37;;;;;;;19.77;10.47;;;;;;;-1.82;87.74;99567.34;118280;1157;65165;-75
2021/01/25 08:54:06;;;;;;;28.40;12.67;;;;;;;-1.78;87.62;99573.95;118203;1156;65162;-77
2021/01/25 08:56:39;;;;;;;21.37;10.40;;;;;;;-1.74;87.61;99572.75;118104;1155;65136;-75
2021/01/25 08:59:26;;;;;;;24.57;12.60;;;;;;;-1.69;86.92;99572.38;118235;1157;65130;-76
2021/01/25 09:01:53;;;;;;;22.43;10.33;;;;;;;-1.62;88.00;99577.90;118110;1157;65177;-76
2021/01/25 09:04:20;;;;;;;21.07;10.93;;;;;;;-1.58;87.49;99582.72;118163;1156;65171;-75
2021/01/25 09:06:49;;;;;;;24.23;11.70;;;;;;;-1.53;87.46;99582.34;118088;1157;65279;-76
2021/01/25 09:09:16;;;;;;;20.33;10.23;;;;;;;-1.47;87.33;99581.84;118322;1157;65060;-77
2021/01/25 09:11:43;;;;;;;21.27;11.10;;;;;;;-1.41;88.14;99589.16;118087;1157;65117;-77
2021/01/25 09:14:10;;;;;;;18.87;9.60;;;;;;;-1.34;86.99;99590.32;118149;1157;65156;-77
2021/01/25 09:16:36;;;;;;;21.77;9.53;;;;;;;-1.27;87.38;99591.45;118283;1155;65079;-78
2021/01/25 09:19:03;;;;;;;15.25;7.95;;;;;;;-1.17;87.20;99598.49;118119;1157;65248;-77
2021/01/25 09:21:33;;;;;;;21.40;11.45;;;;;;;-1.07;87.80;99594.19;118080;1157;65153;-76
2021/01/25 09:23:59;;;;;;;19.13;10.33;;;;;;;-0.95;87.44;99597.56;118115;1155;65140;-76
2021/01/25 09:26:25;;;;;;;20.60;9.07;;;;;;;-0.84;86.59;99594.88;118197;1157;65082;-76
2021/01/25 09:28:52;;;;;;;19.50;9.40;;;;;;;-0.71;86.99;99605.08;118139;1155;66321;-76
2021/01/25 09:31:22;;;;;;;16.33;7.73;;;;;;;-0.54;87.00;99614.07;118130;1157;65217;-78
2021/01/25 09:33:48;;;;;;;21.70;9.70;;;;;;;-0.38;85.25;99619.63;118125;1157;65083;-77
2021/01/25 09:36:15;;;;;;;18.43;8.20;;;;;;;-0.23;85.93;99620.10;118127;1157;65149;-77
2021/01/25 09:38:41;;;;;;;15.75;7.55;;;;;;;-0.09;84.54;99616.29;118095;1157;65648;-77
2021/01/25 09:41:07;;;;;;;18.95;8.28;;;;;;;0.03;83.91;99620.45;118162;1157;65169;-78
2021/01/25 09:43:34;;;;;;;13.90;6.85;;;;;;;0.20;84.16;99616.36;118185;1157;65185;-76
2021/01/25 09:46:00;;;;;;;17.63;8.23;;;;;;;0.36;83.50;99627.10;118123;1157;65169;-77
2021/01/25 09:48:26;;;;;;;13.80;7.75;;;;;;;0.54;82.68;99626.42;118061;1157;65111;-77
2021/01/25 09:50:54;;;;;;;18.30;7.67;;;;;;;0.69;82.60;99622.44;118084;1157;65230;-77
2021/01/25 09:53:21;;;;;;;14.60;7.33;;;;;;;0.86;81.72;99627.93;118603;1157;65166;-77
2021/01/25 09:55:51;;;;;;;15.67;7.00;;;;;;;1.02;79.77;99633.42;118138;1157;65060;-77
2021/01/25 09:58:17;;;;;;;11.53;7.10;;;;;;;1.17;79.75;99637.23;118097;1157;65186;-77
2021/01/25 10:00:44;;;;;;;10.55;5.35;;;;;;;1.35;79.74;99645.16;118084;1157;65117;-77
2021/01/25 10:03:10;;;;;;;17.00;7.73;;;;;;;1.51;79.22;99639.36;118112;1157;65143;-77
2021/01/25 10:05:36;;;;;;;12.93;6.13;;;;;;;1.70;77.68;99646.31;118102;1157;65269;-77
2021/01/25 10:08:03;;;;;;;11.80;6.10;;;;;;;1.89;78.35;99647.17;118098;1157;67775;-77
2021/01/25 10:10:29;;;;;;;13.80;6.20;;;;;;;2.04;76.66;99654.41;118083;1155;65234;-76
2021/01/25 10:12:55;;;;;;;7.90;4.17;;;;;;;2.22;75.72;99653.62;118117;1157;65658;-76
2021/01/25 10:15:22;;;;;;;11.30;6.23;;;;;;;2.34;73.82;99657.69;118087;1157;65143;-75
2021/01/25 10:17:50;;;;;;;9.27;5.20;;;;;;;2.43;73.52;99646.32;118091;1157;66119;-77
2021/01/25 10:20:17;;;;;;;8.00;4.97;;;;;;;2.55;73.22;99653.95;118065;1157;65214;-77
2021/01/25 10:22:44;;;;;;;10.30;4.43;;;;;;;2.66;73.11;99656.38;118085;1157;65143;-77
2021/01/25 10:25:11;;;;;;;8.67;4.13;;;;;;;2.73;71.24;99662.64;118285;1155;65171;-77
2021/01/25 10:27:38;;;;;;;9.83;5.03;;;;;;;2.80;69.46;99663.67;118200;1155;65242;-77
2021/01/25 10:30:07;;;;;;;7.63;4.90;;;;;;;2.94;70.99;99666.77;118511;1157;65207;-76
2021/01/25 10:32:34;;;;;;;12.57;5.23;;;;;;;3.03;70.18;99664.04;118233;1155;65306;-76
2021/01/25 10:35:00;;;;;;;12.30;5.33;;;;;;;3.11;69.89;99665.91;118056;1155;65577;-76
2021/01/25 10:37:28;;;;;;;9.53;3.67;;;;;;;3.11;67.96;99670.34;118074;1157;65153;-76
2021/01/25 10:39:55;;;;;;;7.53;4.37;;;;;;;3.06;69.16;99668.99;118103;1155;65022;-77
2021/01/25 10:42:21;;;;;;;10.27;4.53;;;;;;;3.03;68.16;99671.90;118124;1157;65199;-77
2021/01/25 10:44:47;;;;;;;11.27;5.77;;;;;;;3.06;70.03;99679.47;118093;1157;65376;-77
2021/01/25 10:47:23;;;;;;;10.20;5.35;;;;;;;3.05;69.13;99674.38;118114;1157;66217;-77
2021/01/25 10:49:51;;;;;;;8.90;4.37;;;;;;;3.06;69.63;99686.52;118180;1157;65124;-77
2021/01/25 10:52:18;;;;;;;11.03;5.27;;;;;;;3.05;68.81;99684.86;118101;1155;66200;-77
2021/01/25 10:54:44;;;;;;;10.50;5.45;;;;;;;3.02;69.75;99685.17;118822;1155;65177;-76
2021/01/25 10:57:11;;;;;;;10.27;4.93;;;;;;;3.02;68.86;99693.03;118090;1155;65168;-77
2021/01/25 10:59:37;;;;;;;7.63;4.23;;;;;;;2.98;69.02;99696.92;118169;1157;65140;-76
2021/01/25 11:02:05;;;;;;;7.80;5.03;;;;;;;2.95;69.95;99699.83;118140;1157;65165;-76
2021/01/25 11:04:32;;;;;;;8.67;5.20;;;;;;;2.88;69.52;99696.98;121504;1157;62852;-77
2021/01/25 11:06:59;;;;;;;9.73;5.27;;;;;;;2.88;68.74;99712.70;118108;1157;65201;-75
2021/01/25 11:09:25;;;;;;;9.80;5.07;;;;;;;2.85;68.83;99703.36;118089;1157;66201;-75
2021/01/25 11:11:51;;;;;;;14.37;5.93;;;;;;;2.83;68.75;99702.68;118132;1157;65184;-75
2021/01/25 11:14:18;;;;;;;10.33;5.27;;;;;;;2.78;68.97;99707.53;118066;1157;65143;-76
2021/01/25 11:16:44;;;;;;;8.07;4.13;;;;;;;2.74;69.02;99702.73;118056;1157;65140;-76
2021/01/25 11:19:11;;;;;;;10.53;5.17;;;;;;;2.71;67.80;99706.48;118090;1157;65143;-76